Aérodrome :
LOGIN :

S'inscrire | Disclaimer

   EN    FR    IT 

 










Légende :    VFR   VFR Marginal   IFR   IFR Intensif   IFR Très Intensif
Visi : 
Plafond : 
>= 8 km
>= 3000ft
5 à 8 km
1000 à 3000 ft
1500m à 5 km
500 à 1000 ft
800 à 1500m
200 à 500 ft
< 800m
< 200 ft
Symboles :   Orages  Brouillard  Fortes neiges  Fortes précipitations  Vent > 20 kt
SIGMETs :   Divers  Orages  Givrage  Turbulence  Onde Orograph.  Cendres Volcan.







- Altitude de l'aérodrome : 37 ft
- Code IATA : FRO


ENFL - Florø

DERNIER METAR :
  • 201820Z AUTO 19018KT 9999NDV BKN058/// OVC110/// 10/04 Q1028

METARs EXPIRÉS :
  • 201750Z AUTO 21016KT 9999NDV OVC052/// 10/03 Q1028
  • 201720Z AUTO 21017KT 9999NDV OVC052/// 10/03 Q1028
  • 201650Z AUTO 21019KT 9999NDV OVC054/// 11/03 Q1028
  • 201620Z 21018KT 9999 SCT060 BKN070 12/02 Q1028
  • 201550Z 21013KT 9999 FEW060 BKN070 12/02 Q1029

Prévision TAF périmée.
Pas de NOTAMs connus pour ce terrain.
1 SIGMET publié pour la FIR Norway (ENOR) :
 
Turbulence forte
ENBD SIGMET D02 VALID 201800/202200 ENVN
ENOR NORWAY FIR SEV TURB FCST WI N7035 E02315 - N6840 E01940 - N6810 E01440 - N7000 E01700 - N7035 E02315 SFC/FL080 MOV NE 15KT NC=



MET'MAP, la Météo Aéronautique d'un coup d'oeil ! - Copyright ORBIFLY Décembre 2007 - Disclaimer

ORBIFLY MET'MAP TEAM :

Programmation & Développement : Alexandra Zaïnal
Conception & Développement : Baudouin d'Aumeries
Co-Programmation & Développement : Marc-Olivier Méhu
Soutien technique & logistique : Manuel Goepfert

Contact : metmap@orbifly.com




SOURCES & CREDITS :

   NOAA